createdAt,value
2022-11-10T00:00:32.884Z,14.57
2022-11-10T00:03:18.749Z,7.30
2022-11-10T00:06:05.919Z,9.67
2022-11-10T00:08:51.813Z,8.63
2022-11-10T00:11:37.737Z,9.80
2022-11-10T00:14:42.212Z,5.07
2022-11-10T00:17:28.421Z,4.53
2022-11-10T00:20:14.649Z,5.93
2022-11-10T00:23:00.699Z,5.93
2022-11-10T00:25:46.795Z,5.80
2022-11-10T00:28:32.926Z,7.67
2022-11-10T00:31:19.003Z,5.17
2022-11-10T00:34:05.334Z,5.10
2022-11-10T00:36:51.023Z,12.00
2022-11-10T00:39:37.033Z,12.73
2022-11-10T00:42:23.002Z,17.33
2022-11-10T00:45:10.558Z,5.27
2022-11-10T00:47:56.614Z,4.70
2022-11-10T00:50:42.618Z,6.93
2022-11-10T00:53:28.598Z,11.80
2022-11-10T00:56:14.776Z,6.33
2022-11-10T00:59:00.703Z,7.63
2022-11-10T01:01:46.734Z,6.27
2022-11-10T01:04:32.671Z,7.20
2022-11-10T01:07:18.742Z,6.67
2022-11-10T01:10:05.287Z,6.10
2022-11-10T01:12:51.341Z,14.27
2022-11-10T01:15:43.903Z,6.63
2022-11-10T01:18:29.699Z,5.37
2022-11-10T01:21:15.819Z,8.23
2022-11-10T01:24:01.873Z,7.97
2022-11-10T01:26:48.686Z,5.73
2022-11-10T01:29:34.571Z,9.70
2022-11-10T01:32:20.601Z,12.87
2022-11-10T01:35:06.954Z,9.80
2022-11-10T01:37:53.359Z,8.40
2022-11-10T01:40:39.358Z,5.33
2022-11-10T01:43:26.049Z,6.60
2022-11-10T01:46:13.254Z,13.17
2022-11-10T01:49:01.848Z,28.03
2022-11-10T01:51:54.941Z,17.23
2022-11-10T01:54:44.266Z,12.70
2022-11-10T01:57:30.551Z,10.57
2022-11-10T02:00:17.898Z,17.33
2022-11-10T02:03:26.999Z,11.50
2022-11-10T02:06:13.637Z,14.80
2022-11-10T02:09:00.043Z,16.57
2022-11-10T02:11:46.495Z,12.53
2022-11-10T02:14:32.359Z,20.63
2022-11-10T02:17:18.388Z,14.00
2022-11-10T02:20:08.319Z,18.10
2022-11-10T02:22:53.879Z,11.20
2022-11-10T02:25:40.059Z,7.70
2022-11-10T02:28:27.183Z,12.23
2022-11-10T02:31:13.100Z,14.50
2022-11-10T02:33:58.975Z,9.70
2022-11-10T02:36:44.920Z,5.20
2022-11-10T02:39:30.892Z,6.33
2022-11-10T02:42:17.183Z,5.30
2022-11-10T02:45:03.090Z,10.13
2022-11-10T02:47:49.136Z,9.50
2022-11-10T02:50:35.265Z,9.63
2022-11-10T02:53:21.387Z,14.37
2022-11-10T02:56:08.061Z,10.30
2022-11-10T02:58:54.301Z,5.40
2022-11-10T03:01:40.275Z,9.77
2022-11-10T03:04:26.420Z,7.80
2022-11-10T03:07:12.610Z,13.57
2022-11-10T03:09:58.550Z,9.97
2022-11-10T03:12:44.540Z,13.13
2022-11-10T03:15:30.915Z,7.30
2022-11-10T03:18:16.704Z,5.60
2022-11-10T03:21:02.902Z,6.37
2022-11-10T03:23:48.858Z,8.53
2022-11-10T03:26:34.942Z,10.43
2022-11-10T03:29:21.069Z,11.00
2022-11-10T03:32:07.121Z,6.43
2022-11-10T03:34:53.150Z,11.83
2022-11-10T03:37:42.182Z,15.23
2022-11-10T03:40:28.146Z,16.03
2022-11-10T03:43:14.150Z,10.47
2022-11-10T03:46:00.086Z,6.90
2022-11-10T03:48:51.835Z,6.80
2022-11-10T03:51:39.324Z,10.13
2022-11-10T03:54:25.270Z,8.37
2022-11-10T03:57:11.221Z,10.03
2022-11-10T03:59:57.186Z,18.70
2022-11-10T04:02:43.143Z,20.97
2022-11-10T04:05:47.622Z,20.33
2022-11-10T04:08:51.952Z,8.87
2022-11-10T04:11:56.412Z,14.53
2022-11-10T04:15:00.982Z,8.83
2022-11-10T04:17:51.128Z,35.77
2022-11-10T04:20:37.097Z,7.47
2022-11-10T04:23:27.920Z,13.13
2022-11-10T04:26:29.717Z,11.10
2022-11-10T04:29:18.113Z,10.10
2022-11-10T04:32:04.139Z,7.10
2022-11-10T04:34:50.284Z,8.80
2022-11-10T04:37:36.404Z,12.37
2022-11-10T04:40:22.576Z,8.00
2022-11-10T04:43:08.810Z,8.20
2022-11-10T04:45:54.921Z,7.43
2022-11-10T04:48:40.735Z,9.40
2022-11-10T04:51:37.930Z,6.20
2022-11-10T04:54:23.918Z,22.37
2022-11-10T04:57:09.921Z,9.90
2022-11-10T04:59:55.910Z,12.80
2022-11-10T05:02:41.976Z,8.07
2022-11-10T05:05:28.459Z,21.47
2022-11-10T05:08:13.913Z,14.13
2022-11-10T05:11:00.114Z,7.50
2022-11-10T05:13:46.290Z,8.20
2022-11-10T05:16:32.502Z,20.10
2022-11-10T05:19:18.278Z,13.30
2022-11-10T05:22:04.584Z,9.37
2022-11-10T05:24:50.427Z,20.73
2022-11-10T05:27:36.584Z,13.73
2022-11-10T05:30:22.570Z,18.67
2022-11-10T05:33:09.052Z,21.63
2022-11-10T05:35:55.213Z,14.70
2022-11-10T05:38:43.703Z,20.30
2022-11-10T05:41:29.924Z,114.03
2022-11-10T05:44:15.904Z,190.87
2022-11-10T05:47:01.811Z,83.53
2022-11-10T05:49:48.077Z,22.30
2022-11-10T05:52:33.986Z,14.50
2022-11-10T05:55:22.811Z,38.20
2022-11-10T05:58:08.955Z,59.43
2022-11-10T06:00:54.803Z,118.17
2022-11-10T06:03:40.836Z,123.83
2022-11-10T06:06:26.794Z,72.47
2022-11-10T06:09:12.737Z,77.33
2022-11-10T06:11:58.825Z,109.10
2022-11-10T06:14:44.856Z,10.23
2022-11-10T06:17:30.760Z,12.07
2022-11-10T06:20:17.594Z,17.23
2022-11-10T06:23:05.569Z,13.60
2022-11-10T06:25:51.367Z,15.83
2022-11-10T06:28:37.411Z,93.07
2022-11-10T06:31:23.411Z,84.80
2022-11-10T06:34:09.240Z,25.40
2022-11-10T06:36:55.345Z,62.57
2022-11-10T06:39:41.480Z,128.73
2022-11-10T06:42:27.325Z,210.63
2022-11-10T06:45:13.454Z,103.83
2022-11-10T06:48:10.048Z,89.77
2022-11-10T06:50:55.538Z,101.93
2022-11-10T06:53:40.916Z,31.03
2022-11-10T06:56:26.302Z,10.87
2022-11-10T06:59:12.200Z,29.37
2022-11-10T07:01:58.252Z,20.27
2022-11-10T07:04:44.290Z,64.83
2022-11-10T07:07:30.307Z,39.33
2022-11-10T07:10:16.377Z,33.43
2022-11-10T07:13:03.907Z,33.40
2022-11-10T07:15:50.075Z,67.73
2022-11-10T07:18:36.542Z,31.17
2022-11-10T07:21:22.314Z,208.00
2022-11-10T07:24:08.634Z,75.73
2022-11-10T07:26:54.655Z,37.23
2022-11-10T07:29:40.647Z,36.83
2022-11-10T07:32:26.608Z,159.53
2022-11-10T07:35:12.707Z,111.53
2022-11-10T07:38:01.465Z,15.20
2022-11-10T07:40:50.480Z,23.77
2022-11-10T07:43:36.511Z,34.80
2022-11-10T07:46:22.219Z,23.93
2022-11-10T07:49:08.503Z,120.70
2022-11-10T07:51:54.237Z,23.00
2022-11-10T07:54:40.183Z,13.00
2022-11-10T07:57:26.315Z,14.03
2022-11-10T08:00:13.035Z,33.10
2022-11-10T08:03:19.712Z,13.17
2022-11-10T08:06:05.783Z,9.53
2022-11-10T08:08:51.780Z,12.37
2022-11-10T08:11:37.793Z,9.33
2022-11-10T08:14:23.718Z,9.20
2022-11-10T08:17:09.795Z,7.87
2022-11-10T08:19:55.987Z,9.73
2022-11-10T08:22:41.838Z,17.93
2022-11-10T08:25:35.082Z,16.87
2022-11-10T08:28:21.625Z,25.87
2022-11-10T08:31:07.514Z,13.47
2022-11-10T08:33:53.991Z,9.43
2022-11-10T08:36:40.271Z,8.33
2022-11-10T08:39:38.679Z,10.70
2022-11-10T08:42:24.953Z,7.90
2022-11-10T08:45:11.184Z,8.93
2022-11-10T08:48:01.276Z,8.47
2022-11-10T08:50:47.889Z,4.97
2022-11-10T08:53:33.617Z,11.03
2022-11-10T08:56:19.578Z,8.87
2022-11-10T08:59:05.716Z,5.37
2022-11-10T09:01:51.640Z,13.93
2022-11-10T09:04:37.894Z,4.43
2022-11-10T09:07:23.988Z,5.27
2022-11-10T09:10:10.183Z,6.30
2022-11-10T09:13:00.417Z,4.80
2022-11-10T09:15:46.518Z,4.13
2022-11-10T09:18:33.059Z,6.63
2022-11-10T09:21:18.932Z,3.50
2022-11-10T09:24:05.348Z,4.63
2022-11-10T09:26:51.121Z,4.87
2022-11-10T09:29:37.104Z,8.63
2022-11-10T09:32:23.257Z,4.53
2022-11-10T09:35:09.175Z,3.20
2022-11-10T09:37:55.317Z,11.23
2022-11-10T09:40:48.741Z,4.30
2022-11-10T09:43:42.782Z,4.00
2022-11-10T09:46:38.508Z,5.30
2022-11-10T09:49:40.259Z,12.13
2022-11-10T09:52:29.836Z,2.93
2022-11-10T09:55:55.247Z,3.47
2022-11-10T09:58:46.283Z,7.23
2022-11-10T10:01:47.676Z,2.53
2022-11-10T10:04:52.081Z,9.10
2022-11-10T10:07:59.580Z,2.30
2022-11-10T10:10:49.381Z,5.10
2022-11-10T10:13:53.903Z,4.30
2022-11-10T10:17:06.303Z,3.70
2022-11-10T10:20:01.985Z,7.53
2022-11-10T10:23:05.263Z,2.20
2022-11-10T10:25:53.853Z,3.83
2022-11-10T10:28:45.206Z,3.87
2022-11-10T10:31:42.959Z,2.50
2022-11-10T10:34:31.617Z,6.40
2022-11-10T10:37:43.780Z,8.53
2022-11-10T10:40:28.985Z,9.67
2022-11-10T10:43:14.880Z,2.33
2022-11-10T10:46:08.543Z,7.23
2022-11-10T10:49:31.197Z,7.93
2022-11-10T10:52:24.782Z,4.83
2022-11-10T10:55:13.990Z,7.07
2022-11-10T10:58:02.636Z,3.33
2022-11-10T11:00:55.554Z,2.70
2022-11-10T11:03:50.764Z,4.93
2022-11-10T11:06:36.736Z,2.10
2022-11-10T11:09:47.583Z,4.63
2022-11-10T11:12:33.406Z,3.50
2022-11-10T11:15:22.293Z,2.43
2022-11-10T11:18:17.370Z,1.80
2022-11-10T11:21:25.056Z,4.20
2022-11-10T11:24:39.676Z,10.90
2022-11-10T11:28:17.283Z,2.20
2022-11-10T11:31:19.400Z,2.50
2022-11-10T11:34:16.128Z,9.77
2022-11-10T11:37:22.446Z,2.80
2022-11-10T11:40:18.823Z,3.83
2022-11-10T11:43:20.685Z,2.20
2022-11-10T11:46:14.405Z,3.30
2022-11-10T11:49:10.255Z,4.77
2022-11-10T11:52:12.416Z,6.80
2022-11-10T11:55:25.680Z,3.73
2022-11-10T11:58:22.051Z,4.73
2022-11-10T12:01:24.688Z,4.80
2022-11-10T12:04:23.009Z,3.87
2022-11-10T12:07:30.006Z,4.60
2022-11-10T12:10:57.363Z,7.30
2022-11-10T12:13:55.356Z,3.30
2022-11-10T12:16:47.067Z,2.70
2022-11-10T12:20:11.832Z,6.13
2022-11-10T12:23:18.955Z,7.40
2022-11-10T12:26:07.795Z,3.37
2022-11-10T12:29:06.222Z,4.40
2022-11-10T12:31:56.145Z,2.57
2022-11-10T12:34:45.049Z,4.37
2022-11-10T12:37:41.401Z,1.60
2022-11-10T12:40:51.267Z,3.83
2022-11-10T12:44:07.745Z,1.93
2022-11-10T12:46:57.334Z,1.23
2022-11-10T12:50:17.427Z,7.13
2022-11-10T12:53:14.793Z,1.20
2022-11-10T12:56:06.493Z,1.53
2022-11-10T12:59:14.148Z,2.87
2022-11-10T13:02:03.744Z,4.63
2022-11-10T13:05:21.298Z,5.30
2022-11-10T13:08:13.408Z,4.80
2022-11-10T13:11:11.175Z,7.80
2022-11-10T13:14:01.503Z,4.53
2022-11-10T13:16:51.181Z,2.30
2022-11-10T13:19:38.979Z,1.37
2022-11-10T13:22:34.358Z,3.93
2022-11-10T13:25:38.759Z,1.83
2022-11-10T13:28:46.975Z,2.87
2022-11-10T13:31:33.048Z,5.70
2022-11-10T13:34:19.126Z,9.63
2022-11-10T13:37:34.079Z,2.77
2022-11-10T13:40:30.981Z,6.00
2022-11-10T13:43:23.919Z,7.17
2022-11-10T13:46:09.668Z,2.83
2022-11-10T13:49:15.311Z,4.37
2022-11-10T13:52:25.247Z,2.00
2022-11-10T13:55:29.726Z,4.13
2022-11-10T13:58:24.799Z,2.83
2022-11-10T14:01:16.890Z,3.20
2022-11-10T14:04:03.775Z,2.37
2022-11-10T14:06:55.027Z,1.57
2022-11-10T14:09:47.741Z,3.60
2022-11-10T14:13:12.001Z,4.70
2022-11-10T14:15:58.600Z,14.27
2022-11-10T14:19:19.405Z,3.63
2022-11-10T14:22:28.909Z,2.30
2022-11-10T14:25:29.610Z,3.40
2022-11-10T14:28:21.164Z,1.40
2022-11-10T14:31:10.995Z,4.00
2022-11-10T14:33:58.143Z,1.03
2022-11-10T14:36:54.978Z,1.60
2022-11-10T14:39:41.664Z,2.20
2022-11-10T14:42:29.885Z,3.73
2022-11-10T14:45:16.995Z,2.20
2022-11-10T14:48:03.191Z,1.43
2022-11-10T14:50:49.588Z,2.40
2022-11-10T14:53:37.597Z,4.10
2022-11-10T14:56:29.692Z,1.50
2022-11-10T14:59:16.318Z,5.00
2022-11-10T15:02:04.166Z,6.40
2022-11-10T15:04:51.800Z,10.00
2022-11-10T15:07:38.012Z,1.57
2022-11-10T15:10:25.516Z,2.63
2022-11-10T15:13:14.218Z,6.13
2022-11-10T15:16:28.269Z,8.23
2022-11-10T15:20:00.529Z,7.40
2022-11-10T15:22:49.816Z,2.53
2022-11-10T15:25:37.675Z,2.13
2022-11-10T15:28:30.696Z,18.13
2022-11-10T15:31:30.648Z,2.23
2022-11-10T15:34:43.521Z,9.10
2022-11-10T15:37:31.440Z,3.90
2022-11-10T15:40:47.057Z,3.60
2022-11-10T15:43:32.713Z,4.77
2022-11-10T15:46:21.194Z,9.43
2022-11-10T15:49:13.409Z,4.10
2022-11-10T15:52:21.060Z,5.37
2022-11-10T15:55:18.736Z,4.00
2022-11-10T15:58:11.829Z,3.63
2022-11-10T16:00:57.698Z,2.33
2022-11-10T16:03:44.318Z,5.43
2022-11-10T16:06:30.680Z,6.17
2022-11-10T16:09:16.990Z,12.67
2022-11-10T16:12:02.903Z,3.63
2022-11-10T16:14:51.380Z,4.30
2022-11-10T16:17:37.546Z,5.13
2022-11-10T16:20:23.238Z,2.90
2022-11-10T16:23:09.572Z,13.13
2022-11-10T16:25:56.868Z,11.17
2022-11-10T16:28:44.187Z,2.67
2022-11-10T16:31:31.858Z,3.90
2022-11-10T16:34:17.598Z,6.53
2022-11-10T16:37:03.509Z,4.67
2022-11-10T16:39:49.500Z,2.03
2022-11-10T16:42:35.553Z,3.70
2022-11-10T16:45:23.662Z,2.63
2022-11-10T16:48:09.374Z,6.30
2022-11-10T16:50:57.945Z,5.70
2022-11-10T16:53:44.099Z,7.90
2022-11-10T16:56:29.833Z,9.83
2022-11-10T16:59:16.177Z,2.00
2022-11-10T17:02:01.934Z,9.07
2022-11-10T17:04:47.965Z,4.80
2022-11-10T17:07:34.445Z,16.63
2022-11-10T17:10:21.621Z,7.73
2022-11-10T17:13:11.000Z,8.20
2022-11-10T17:16:08.204Z,8.10
2022-11-10T17:18:54.559Z,9.03
2022-11-10T17:21:40.643Z,12.30
2022-11-10T17:24:26.530Z,9.00
2022-11-10T17:27:12.556Z,5.47
2022-11-10T17:29:58.534Z,9.27
2022-11-10T17:33:04.208Z,13.13
2022-11-10T17:35:50.910Z,8.03
2022-11-10T17:38:37.033Z,9.33
2022-11-10T17:41:22.875Z,5.43
2022-11-10T17:44:16.326Z,9.93
2022-11-10T17:47:02.194Z,5.23
2022-11-10T17:49:48.376Z,10.10
2022-11-10T17:52:34.328Z,9.13
2022-11-10T17:55:29.789Z,4.90
2022-11-10T17:58:18.738Z,6.73
2022-11-10T18:01:15.792Z,9.23
2022-11-10T18:04:01.988Z,31.23
2022-11-10T18:06:47.991Z,24.30
2022-11-10T18:09:33.973Z,19.67
2022-11-10T18:12:22.875Z,15.70
2022-11-10T18:15:14.779Z,6.40
2022-11-10T18:18:01.287Z,8.80
2022-11-10T18:20:47.521Z,8.40
2022-11-10T18:23:33.308Z,7.20
2022-11-10T18:26:19.318Z,13.10
2022-11-10T18:29:05.607Z,7.67
2022-11-10T18:31:51.485Z,7.20
2022-11-10T18:34:37.383Z,8.03
2022-11-10T18:37:23.543Z,8.50
2022-11-10T18:40:10.363Z,25.17
2022-11-10T18:43:05.908Z,14.17
2022-11-10T18:45:54.559Z,15.53
2022-11-10T18:48:41.191Z,13.00
2022-11-10T18:51:27.264Z,14.13
2022-11-10T18:54:13.084Z,10.30
2022-11-10T18:56:59.203Z,9.73
2022-11-10T18:59:45.353Z,16.80
2022-11-10T19:02:31.212Z,7.53
2022-11-10T19:05:17.488Z,13.70
2022-11-10T19:08:03.647Z,15.00
2022-11-10T19:10:49.682Z,12.27
2022-11-10T19:13:36.626Z,20.93
2022-11-10T19:16:22.161Z,26.27
2022-11-10T19:19:09.516Z,40.00
2022-11-10T19:21:55.364Z,42.57
2022-11-10T19:25:00.669Z,27.97
2022-11-10T19:27:47.362Z,32.73
2022-11-10T19:30:33.206Z,19.03
2022-11-10T19:33:19.240Z,38.57
2022-11-10T19:36:07.793Z,46.03
2022-11-10T19:38:57.401Z,40.03
2022-11-10T19:41:43.262Z,18.27
2022-11-10T19:44:29.504Z,21.07
2022-11-10T19:47:15.444Z,17.43
2022-11-10T19:50:01.432Z,20.97
2022-11-10T19:52:47.687Z,14.90
2022-11-10T19:55:33.948Z,21.37
2022-11-10T19:58:19.584Z,22.00
2022-11-10T20:01:06.910Z,19.53
2022-11-10T20:03:53.313Z,15.70
2022-11-10T20:06:39.380Z,14.20
2022-11-10T20:09:25.201Z,11.70
2022-11-10T20:12:11.326Z,12.43
2022-11-10T20:14:57.180Z,33.97
2022-11-10T20:17:43.439Z,15.10
2022-11-10T20:20:29.248Z,12.53
2022-11-10T20:23:18.939Z,9.70
2022-11-10T20:26:13.739Z,10.77
2022-11-10T20:29:09.616Z,17.40
2022-11-10T20:31:55.745Z,24.30
2022-11-10T20:34:42.085Z,17.73
2022-11-10T20:37:27.777Z,19.10
2022-11-10T20:40:42.216Z,23.17
2022-11-10T20:43:20.040Z,16.53
2022-11-10T20:46:07.763Z,15.57
2022-11-10T20:48:53.749Z,12.37
2022-11-10T20:51:41.330Z,25.73
2022-11-10T20:54:28.337Z,42.57
2022-11-10T20:57:14.425Z,66.50
2022-11-10T21:00:00.667Z,58.27
2022-11-10T21:02:46.748Z,30.73
2022-11-10T21:05:32.741Z,42.40
2022-11-10T21:08:18.804Z,12.33
2022-11-10T21:11:06.220Z,17.50
2022-11-10T21:13:52.201Z,16.23
2022-11-10T21:16:38.268Z,25.97
2022-11-10T21:19:24.332Z,13.20
2022-11-10T21:22:10.270Z,24.30
2022-11-10T21:24:56.302Z,19.87
2022-11-10T21:27:42.441Z,18.73
2022-11-10T21:30:28.820Z,22.93
2022-11-10T21:33:14.691Z,23.20
2022-11-10T21:36:06.481Z,25.43
2022-11-10T21:38:52.181Z,28.10
2022-11-10T21:41:38.210Z,14.67
2022-11-10T21:44:24.724Z,19.43
2022-11-10T21:47:10.723Z,10.93
2022-11-10T21:49:56.821Z,7.87
2022-11-10T21:52:42.948Z,12.07
2022-11-10T21:55:28.752Z,18.07
2022-11-10T21:58:14.999Z,26.03
2022-11-10T22:01:03.088Z,25.23
2022-11-10T22:03:48.908Z,44.07
2022-11-10T22:06:53.279Z,46.10
2022-11-10T22:09:57.817Z,50.37
2022-11-10T22:13:02.303Z,22.70
2022-11-10T22:16:06.899Z,16.43
2022-11-10T22:18:52.983Z,73.30
2022-11-10T22:21:39.102Z,30.20
2022-11-10T22:24:27.867Z,16.97
2022-11-10T22:27:13.663Z,20.63
2022-11-10T22:29:59.787Z,22.97
2022-11-10T22:32:45.685Z,13.33
2022-11-10T22:35:43.587Z,17.67
2022-11-10T22:38:30.534Z,15.73
2022-11-10T22:41:35.707Z,13.60
2022-11-10T22:44:24.972Z,12.20
2022-11-10T22:47:11.543Z,27.43
2022-11-10T22:49:57.451Z,19.77
2022-11-10T22:52:43.428Z,15.30
2022-11-10T22:55:29.386Z,56.70
2022-11-10T22:58:15.355Z,23.30
2022-11-10T23:01:08.818Z,22.03
2022-11-10T23:03:56.884Z,20.67
2022-11-10T23:06:42.809Z,24.80
2022-11-10T23:09:28.909Z,20.10
2022-11-10T23:12:14.664Z,21.30
2022-11-10T23:15:00.625Z,27.50
2022-11-10T23:17:46.584Z,17.43
2022-11-10T23:20:32.628Z,18.87
2022-11-10T23:23:18.590Z,28.67
2022-11-10T23:26:18.522Z,18.70
2022-11-10T23:29:04.472Z,28.07
2022-11-10T23:31:50.319Z,23.87
2022-11-10T23:34:36.169Z,27.57
2022-11-10T23:37:22.197Z,22.00
2022-11-10T23:40:08.665Z,18.90
2022-11-10T23:42:54.741Z,24.00
2022-11-10T23:46:06.027Z,20.57
2022-11-10T23:48:49.325Z,26.00
2022-11-10T23:51:35.260Z,22.97
2022-11-10T23:54:21.160Z,32.93
2022-11-10T23:57:07.126Z,27.17
2022-11-10T23:59:53.064Z,30.23
